LFOB 191200Z AUTO 03009KT CAVOK 21/10 Q1025 NOSIG

ElémentsDécodage
LFOB Station météo située sur l'aérodrome de BEAUVAIS Tillé
191200Z émis le 19 du mois à 12h00 UTC
AUTO Bulletin édité par un automate
03009KT vent du 030°, 09 noeuds
CAVOK Ceiling And Visibility OK
- Visibilité de 10 Km ou plus
- Pas de nuage au-dessous de 1500m ou au-dessous de l'altitude minimale du secteur la plus élevée (si>1500m) et absence de CB
- pas de temps présent significatif
21/10 température 21°C, point de rosée 10°C
 soit une humidité relative de 49%
Q1025 la pression au niveau de la mer (QNH) est de 1025 hPa
NOSIG Pas de changement significatif prévu au cours des deux heures suivant l'heure de l'observation